createdAt,value
2018-06-11T00:00:48.394Z,998.73
2018-06-11T00:01:48.398Z,998.70
2018-06-11T00:02:48.412Z,998.69
2018-06-11T00:03:48.408Z,998.69
2018-06-11T00:04:48.410Z,998.70
2018-06-11T00:05:48.444Z,998.73
2018-06-11T00:06:48.424Z,998.73
2018-06-11T00:07:48.426Z,998.75
2018-06-11T00:08:48.428Z,998.74
2018-06-11T00:09:48.434Z,998.75
2018-06-11T00:10:48.449Z,998.72
2018-06-11T00:11:48.448Z,998.70
2018-06-11T00:12:48.455Z,998.69
2018-06-11T00:13:48.460Z,998.66
2018-06-11T00:14:48.471Z,998.63
2018-06-11T00:15:48.467Z,998.57
2018-06-11T00:16:48.476Z,998.54
2018-06-11T00:17:48.479Z,998.53
2018-06-11T00:18:48.482Z,998.52
2018-06-11T00:19:48.495Z,998.49
2018-06-11T00:20:48.491Z,998.46
2018-06-11T00:21:48.497Z,998.43
2018-06-11T00:22:48.499Z,998.42
2018-06-11T00:23:48.508Z,998.41
2018-06-11T00:24:48.512Z,998.43
2018-06-11T00:25:48.514Z,998.45
2018-06-11T00:26:48.523Z,998.46
2018-06-11T00:27:48.529Z,998.43
2018-06-11T00:28:48.534Z,998.47
2018-06-11T00:29:48.540Z,998.47
2018-06-11T00:30:48.577Z,998.46
2018-06-11T00:31:48.551Z,998.43
2018-06-11T00:32:48.552Z,998.41
2018-06-11T00:33:48.551Z,998.37
2018-06-11T00:34:48.561Z,998.42
2018-06-11T00:35:48.561Z,998.41
2018-06-11T00:36:48.573Z,998.41
2018-06-11T00:37:48.579Z,998.39
2018-06-11T00:38:48.589Z,998.39
2018-06-11T00:39:48.627Z,998.37
2018-06-11T00:40:48.590Z,998.39
2018-06-11T00:41:48.616Z,998.41
2018-06-11T00:42:48.603Z,998.43
2018-06-11T00:43:48.618Z,998.44
2018-06-11T00:44:48.611Z,998.40
2018-06-11T00:45:48.618Z,998.43
2018-06-11T00:46:48.619Z,998.45
2018-06-11T00:47:48.627Z,998.40
2018-06-11T00:48:48.634Z,998.40
2018-06-11T00:49:48.634Z,998.37
2018-06-11T00:50:48.652Z,998.36
2018-06-11T00:51:48.652Z,998.33
2018-06-11T00:52:48.650Z,998.32
2018-06-11T00:53:48.651Z,998.30
2018-06-11T00:54:48.655Z,998.31
2018-06-11T00:55:48.657Z,998.34
2018-06-11T00:56:48.663Z,998.32
2018-06-11T00:57:48.672Z,998.31
2018-06-11T00:58:48.687Z,998.33
2018-06-11T00:59:48.708Z,998.31
2018-06-11T01:00:48.708Z,998.29
2018-06-11T01:01:48.693Z,998.29
2018-06-11T01:02:48.703Z,998.33
2018-06-11T01:03:48.705Z,998.30
2018-06-11T01:04:48.733Z,998.32
2018-06-11T01:05:48.711Z,998.34
2018-06-11T01:06:48.722Z,998.28
2018-06-11T01:07:48.722Z,998.31
2018-06-11T01:08:48.725Z,998.30
2018-06-11T01:09:48.733Z,998.28
2018-06-11T01:10:48.732Z,998.22
2018-06-11T01:11:48.739Z,998.27
2018-06-11T01:12:48.751Z,998.23
2018-06-11T01:13:48.767Z,998.16
2018-06-11T01:14:48.765Z,998.15
2018-06-11T01:15:48.756Z,998.15
2018-06-11T01:16:48.776Z,998.15
2018-06-11T01:17:48.774Z,998.15
2018-06-11T01:18:48.774Z,998.11
2018-06-11T01:19:49.005Z,998.17
2018-06-11T01:20:48.782Z,998.11
2018-06-11T01:21:48.811Z,998.11
2018-06-11T01:22:48.792Z,998.12
2018-06-11T01:23:48.811Z,998.14
2018-06-11T01:24:48.822Z,998.11
2018-06-11T01:25:48.811Z,998.09
2018-06-11T01:26:48.814Z,998.10
2018-06-11T01:27:48.831Z,998.07
2018-06-11T01:28:48.827Z,998.09
2018-06-11T01:29:48.827Z,998.03
2018-06-11T01:30:48.837Z,998.02
2018-06-11T01:31:48.846Z,998.00
2018-06-11T01:32:48.837Z,997.98
2018-06-11T01:33:48.856Z,997.97
2018-06-11T01:34:49.100Z,997.94
2018-06-11T01:35:48.854Z,997.94
2018-06-11T01:36:48.854Z,997.93
2018-06-11T01:37:48.863Z,997.91
2018-06-11T01:38:48.868Z,997.92
2018-06-11T01:39:48.882Z,997.94
2018-06-11T01:40:48.883Z,997.92
2018-06-11T01:41:48.882Z,997.90
2018-06-11T01:42:48.887Z,997.90
2018-06-11T01:43:48.889Z,997.89
2018-06-11T01:44:48.910Z,997.89
2018-06-11T01:45:48.909Z,997.88
2018-06-11T01:46:48.901Z,997.89
2018-06-11T01:47:48.920Z,997.90
2018-06-11T01:48:48.925Z,997.87
2018-06-11T01:49:48.919Z,997.84
2018-06-11T01:50:48.916Z,997.83
2018-06-11T01:51:48.942Z,997.85
2018-06-11T01:52:48.935Z,997.86
2018-06-11T01:53:48.937Z,997.86
2018-06-11T01:54:48.943Z,997.85
2018-06-11T01:55:48.947Z,997.83
2018-06-11T01:56:48.947Z,997.88
2018-06-11T01:57:48.947Z,997.83
2018-06-11T01:58:48.955Z,997.83
2018-06-11T01:59:48.964Z,997.83
2018-06-11T02:00:48.969Z,997.78
2018-06-11T02:01:48.980Z,997.80
2018-06-11T02:02:48.976Z,997.77
2018-06-11T02:03:48.990Z,997.73
2018-06-11T02:04:48.990Z,997.75
2018-06-11T02:05:48.992Z,997.72
2018-06-11T02:06:48.993Z,997.74
2018-06-11T02:07:48.998Z,997.72
2018-06-11T02:08:49.002Z,997.72
2018-06-11T02:09:49.000Z,997.75
2018-06-11T02:10:49.005Z,997.72
2018-06-11T02:11:49.016Z,997.76
2018-06-11T02:12:49.019Z,997.79
2018-06-11T02:13:49.025Z,997.79
2018-06-11T02:14:49.027Z,997.80
2018-06-11T02:15:49.037Z,997.79
2018-06-11T02:16:49.051Z,997.84
2018-06-11T02:17:49.043Z,997.81
2018-06-11T02:18:49.043Z,997.83
2018-06-11T02:19:49.046Z,997.85
2018-06-11T02:20:49.088Z,997.83
2018-06-11T02:21:49.078Z,997.82
2018-06-11T02:22:49.066Z,997.85
2018-06-11T02:23:49.086Z,997.85
2018-06-11T02:24:49.078Z,997.83
2018-06-11T02:25:49.076Z,997.82
2018-06-11T02:26:49.086Z,997.83
2018-06-11T02:27:49.092Z,997.79
2018-06-11T02:28:49.089Z,997.77
2018-06-11T02:29:49.106Z,997.74
2018-06-11T02:30:49.104Z,997.68
2018-06-11T02:31:49.109Z,997.66
2018-06-11T02:32:49.106Z,997.67
2018-06-11T02:33:49.139Z,997.61
2018-06-11T02:34:49.121Z,997.64
2018-06-11T02:35:49.123Z,997.68
2018-06-11T02:36:49.124Z,997.66
2018-06-11T02:37:49.130Z,997.71
2018-06-11T02:38:49.129Z,997.75
2018-06-11T02:39:49.135Z,997.77
2018-06-11T02:40:49.138Z,997.77
2018-06-11T02:41:49.153Z,997.75
2018-06-11T02:42:49.161Z,997.73
2018-06-11T02:43:49.149Z,997.75
2018-06-11T02:44:49.159Z,997.73
2018-06-11T02:45:49.168Z,997.74
2018-06-11T02:46:49.166Z,997.75
2018-06-11T02:47:49.174Z,997.72
2018-06-11T02:48:49.172Z,997.72
2018-06-11T02:49:49.182Z,997.74
2018-06-11T02:50:49.185Z,997.75
2018-06-11T02:51:49.185Z,997.77
2018-06-11T02:52:49.187Z,997.79
2018-06-11T02:53:49.190Z,997.83
2018-06-11T02:54:49.199Z,997.82
2018-06-11T02:55:49.216Z,997.81
2018-06-11T02:56:49.226Z,997.81
2018-06-11T02:57:49.215Z,997.84
2018-06-11T02:58:49.209Z,997.86
2018-06-11T02:59:49.218Z,997.89
2018-06-11T03:00:49.221Z,997.87
2018-06-11T03:01:49.229Z,997.88
2018-06-11T03:02:49.236Z,997.90
2018-06-11T03:22:52.367Z,997.85
2018-06-11T03:23:52.349Z,997.81
2018-06-11T03:24:52.346Z,997.80
2018-06-11T03:25:52.341Z,997.83
2018-06-11T03:26:52.361Z,997.83
2018-06-11T03:27:52.346Z,997.86
2018-06-11T03:28:52.379Z,997.88
2018-06-11T03:29:52.346Z,997.91
2018-06-11T03:30:52.360Z,997.92
2018-06-11T03:31:52.350Z,997.96
2018-06-11T03:32:52.365Z,997.98
2018-06-11T03:33:52.358Z,997.98
2018-06-11T03:34:52.364Z,997.93
2018-06-11T03:35:52.386Z,997.99
2018-06-11T03:36:52.372Z,997.93
2018-06-11T03:37:52.369Z,997.94
2018-06-11T03:38:52.373Z,997.95
2018-06-11T03:39:52.384Z,997.96
2018-06-11T03:40:52.382Z,997.95
2018-06-11T03:41:52.395Z,997.94
2018-06-11T03:42:52.391Z,997.94
2018-06-11T03:43:52.394Z,997.94
2018-06-11T03:44:52.408Z,997.91
2018-06-11T03:45:52.406Z,997.89
2018-06-11T03:46:52.406Z,997.94
2018-06-11T03:47:52.409Z,997.92
2018-06-11T03:48:52.407Z,997.95
2018-06-11T03:49:52.419Z,997.90
2018-06-11T03:50:52.429Z,997.91
2018-06-11T03:51:52.424Z,997.91
2018-06-11T03:52:52.435Z,997.93
2018-06-11T03:53:52.438Z,997.93
2018-06-11T03:54:52.445Z,997.84
2018-06-11T03:55:52.435Z,997.87
2018-06-11T03:56:52.449Z,997.90
2018-06-11T03:57:52.493Z,997.87
2018-06-11T03:58:52.455Z,997.89
2018-06-11T03:59:52.456Z,997.88
2018-06-11T04:00:52.464Z,997.86
2018-06-11T04:01:52.462Z,997.86
2018-06-11T04:02:52.466Z,997.84
2018-06-11T04:03:52.473Z,997.86
2018-06-11T04:04:52.482Z,997.85
2018-06-11T04:05:52.485Z,997.83
2018-06-11T04:06:52.488Z,997.84
2018-06-11T04:07:52.489Z,997.83
2018-06-11T04:08:52.500Z,997.83
2018-06-11T04:09:52.498Z,997.86
2018-06-11T04:10:52.630Z,997.87
2018-06-11T04:11:52.513Z,997.87
2018-06-11T04:12:52.527Z,997.88
2018-06-11T04:13:52.519Z,997.90
2018-06-11T04:14:52.519Z,997.87
2018-06-11T04:15:52.528Z,997.84
2018-06-11T04:16:52.527Z,997.81
2018-06-11T04:18:01.183Z,997.83
2018-06-11T04:19:45.998Z,997.83
2018-06-11T04:20:45.962Z,997.83
2018-06-11T04:21:45.959Z,997.81
2018-06-11T04:22:45.978Z,997.80
2018-06-11T04:23:45.987Z,997.82
2018-06-11T04:24:45.975Z,997.82
2018-06-11T04:25:45.989Z,997.81
2018-06-11T04:26:45.983Z,997.81
2018-06-11T04:27:45.995Z,997.79
2018-06-11T04:28:45.997Z,997.81
2018-06-11T04:29:45.999Z,997.77
2018-06-11T04:30:46.006Z,997.76
2018-06-11T04:31:46.013Z,997.78
2018-06-11T04:32:46.013Z,997.76
2018-06-11T04:33:46.032Z,997.80
2018-06-11T04:34:46.020Z,997.80
2018-06-11T04:35:46.027Z,997.80
2018-06-11T04:36:46.035Z,997.82
2018-06-11T04:37:46.044Z,997.80
2018-06-11T04:38:46.048Z,997.79
2018-06-11T04:39:46.051Z,997.75
2018-06-11T04:40:46.058Z,997.77
2018-06-11T04:41:46.064Z,997.77
2018-06-11T04:42:46.064Z,997.72
2018-06-11T04:43:46.075Z,997.70
2018-06-11T04:44:46.090Z,997.69
2018-06-11T04:45:46.084Z,997.68
2018-06-11T04:46:46.094Z,997.65
2018-06-11T04:47:46.102Z,997.66
2018-06-11T04:48:46.103Z,997.67
2018-06-11T04:49:46.108Z,997.71
2018-06-11T04:50:46.113Z,997.69
2018-06-11T04:51:46.116Z,997.72
2018-06-11T04:52:46.126Z,997.74
2018-06-11T04:53:46.126Z,997.72
2018-06-11T04:54:46.134Z,997.73
2018-06-11T04:55:46.149Z,997.72
2018-06-11T04:56:46.147Z,997.71
2018-06-11T04:57:46.148Z,997.75
2018-06-11T04:58:46.154Z,997.78
2018-06-11T04:59:46.161Z,997.84
2018-06-11T05:00:46.165Z,997.82
2018-06-11T05:01:46.172Z,997.83
2018-06-11T05:02:46.180Z,997.79
2018-06-11T05:03:46.182Z,997.82
2018-06-11T05:04:46.190Z,997.83
2018-06-11T05:05:46.202Z,997.78
2018-06-11T05:06:46.202Z,997.78
2018-06-11T05:07:46.207Z,997.75
2018-06-11T05:08:46.215Z,997.75
2018-06-11T05:09:46.246Z,997.71
2018-06-11T05:10:46.225Z,997.65
2018-06-11T05:11:46.229Z,997.61
2018-06-11T05:12:46.237Z,997.65
2018-06-11T05:13:46.242Z,997.64
2018-06-11T05:14:46.254Z,997.70
2018-06-11T05:15:46.260Z,997.71
2018-06-11T05:16:46.283Z,997.69
2018-06-11T05:17:46.271Z,997.69
2018-06-11T05:18:46.286Z,997.70
2018-06-11T05:19:46.309Z,997.70
2018-06-11T05:20:46.294Z,997.64
2018-06-11T05:21:46.303Z,997.63
2018-06-11T05:22:46.307Z,997.60
2018-06-11T05:23:46.316Z,997.55
2018-06-11T05:24:46.325Z,997.52
2018-06-11T05:25:46.330Z,997.51
2018-06-11T05:26:46.337Z,997.48
2018-06-11T05:27:46.343Z,997.48
2018-06-11T05:28:46.391Z,997.52
2018-06-11T05:29:46.360Z,997.53
2018-06-11T05:30:46.367Z,997.56
2018-06-11T05:31:46.372Z,997.60
2018-06-11T05:32:46.381Z,997.65
2018-06-11T05:33:46.388Z,997.67
2018-06-11T05:34:46.399Z,997.69
2018-06-11T05:35:46.407Z,997.69
2018-06-11T05:36:46.412Z,997.69
2018-06-11T05:37:46.418Z,997.72
2018-06-11T05:38:46.431Z,997.68
2018-06-11T05:39:46.447Z,997.67
2018-06-11T05:40:46.438Z,997.64
2018-06-11T05:41:46.471Z,997.64
2018-06-11T05:42:46.453Z,997.64
2018-06-11T05:43:46.466Z,997.65
2018-06-11T05:44:46.469Z,997.66
2018-06-11T05:45:46.479Z,997.70
2018-06-11T05:46:46.486Z,997.71
2018-06-11T05:47:46.509Z,997.77
2018-06-11T05:48:46.503Z,997.75
2018-06-11T05:49:46.508Z,997.77
2018-06-11T05:50:46.516Z,997.78
2018-06-11T05:51:46.528Z,997.72
2018-06-11T05:52:46.534Z,997.74
2018-06-11T05:53:46.542Z,997.77
2018-06-11T05:54:46.576Z,997.82
2018-06-11T05:55:46.600Z,997.79
2018-06-11T05:56:46.565Z,997.82
2018-06-11T05:57:46.579Z,997.85
2018-06-11T05:58:46.581Z,997.85
2018-06-11T05:59:46.593Z,997.80
2018-06-11T06:00:46.599Z,997.78
2018-06-11T06:01:46.608Z,997.78
2018-06-11T06:02:46.613Z,997.73
2018-06-11T06:03:46.632Z,997.75
2018-06-11T06:04:46.636Z,997.78
2018-06-11T06:05:46.637Z,997.78
2018-06-11T06:06:46.641Z,997.81
2018-06-11T06:07:46.652Z,997.82
2018-06-11T06:08:46.660Z,997.81
2018-06-11T06:09:46.679Z,997.85
2018-06-11T06:10:46.669Z,997.81
2018-06-11T06:11:46.679Z,997.82
2018-06-11T06:12:46.687Z,997.82
2018-06-11T06:13:46.693Z,997.82
2018-06-11T06:14:46.705Z,997.83
2018-06-11T06:15:46.709Z,997.81
2018-06-11T06:16:46.712Z,997.84
2018-06-11T06:17:46.725Z,997.86
2018-06-11T06:18:46.727Z,997.94
2018-06-11T06:19:46.737Z,997.97
2018-06-11T06:20:46.748Z,998.00
2018-06-11T06:21:46.748Z,998.05
2018-06-11T06:22:46.765Z,998.03
2018-06-11T06:23:46.769Z,998.04
2018-06-11T06:24:46.772Z,998.02
2018-06-11T06:25:46.785Z,998.01
2018-06-11T06:26:46.853Z,998.02
2018-06-11T06:27:46.804Z,998.03
2018-06-11T06:28:46.800Z,998.04
2018-06-11T06:29:46.833Z,998.02
2018-06-11T06:30:46.821Z,998.03
2018-06-11T06:31:46.858Z,998.04
2018-06-11T06:32:46.824Z,998.02
2018-06-11T06:33:46.842Z,998.05
2018-06-11T06:34:46.898Z,998.06
2018-06-11T06:35:46.851Z,998.04
2018-06-11T06:36:46.857Z,998.09
2018-06-11T06:37:46.868Z,998.08
2018-06-11T06:38:46.870Z,998.10
2018-06-11T06:39:46.882Z,998.10
2018-06-11T06:40:46.886Z,998.10
2018-06-11T06:41:46.905Z,998.07
2018-06-11T06:42:46.895Z,998.05
2018-06-11T06:43:46.915Z,997.98
2018-06-11T06:44:46.924Z,997.99
2018-06-11T06:45:46.922Z,997.99
2018-06-11T06:46:46.948Z,997.96
2018-06-11T06:47:46.942Z,997.96
2018-06-11T06:48:46.952Z,997.97
2018-06-11T06:49:46.981Z,997.97
2018-06-11T06:50:46.959Z,997.93
2018-06-11T06:51:46.979Z,997.96
2018-06-11T06:52:46.970Z,997.95
2018-06-11T06:53:46.981Z,997.92
2018-06-11T06:54:46.985Z,997.93
2018-06-11T06:55:46.996Z,997.95
2018-06-11T06:56:47.003Z,997.95
2018-06-11T06:57:47.008Z,997.96
2018-06-11T06:58:47.016Z,997.95
2018-06-11T06:59:47.022Z,997.93
2018-06-11T07:00:47.036Z,997.91
2018-06-11T07:01:47.034Z,997.86
2018-06-11T07:02:47.041Z,997.85
2018-06-11T07:03:47.069Z,997.81
2018-06-11T07:04:47.062Z,997.81
2018-06-11T07:05:47.063Z,997.81
2018-06-11T07:06:47.074Z,997.83
2018-06-11T07:09:18.183Z,997.83
2018-06-11T07:10:16.757Z,997.86
2018-06-11T07:12:01.541Z,997.89
2018-06-11T07:13:01.559Z,997.96
2018-06-11T07:14:01.549Z,997.96
2018-06-11T07:15:01.547Z,997.99
2018-06-11T07:16:01.568Z,998.00
2018-06-11T07:17:01.562Z,998.00
2018-06-11T07:18:01.582Z,997.98
2018-06-11T07:19:01.573Z,997.97
2018-06-11T07:20:01.584Z,997.99
2018-06-11T07:21:01.602Z,998.00
2018-06-11T07:22:01.599Z,997.97
2018-06-11T07:23:01.611Z,997.94
2018-06-11T07:24:01.618Z,997.92
2018-06-11T07:25:01.619Z,997.91
2018-06-11T07:26:01.641Z,997.89
2018-06-11T07:27:01.639Z,997.92
2018-06-11T07:28:01.666Z,997.86
2018-06-11T07:29:01.654Z,997.87
2018-06-11T07:30:01.665Z,997.85
2018-06-11T07:31:01.670Z,997.84
2018-06-11T07:32:01.674Z,997.81
2018-06-11T07:33:01.686Z,997.80
2018-06-11T07:34:01.693Z,997.84
2018-06-11T07:35:01.731Z,997.81
2018-06-11T07:36:01.699Z,997.78
2018-06-11T07:37:01.708Z,997.76
2018-06-11T07:38:01.721Z,997.75
2018-06-11T07:39:01.806Z,997.71
2018-06-11T07:40:01.730Z,997.70
2018-06-11T07:41:01.811Z,997.67
2018-06-11T07:42:01.752Z,997.69
2018-06-11T07:43:01.784Z,997.65
2018-06-11T07:44:01.774Z,997.64
2018-06-11T07:45:01.781Z,997.66
2018-06-11T07:46:01.786Z,997.63
2018-06-11T07:47:01.791Z,997.60
2018-06-11T07:48:01.823Z,997.63
2018-06-11T07:49:01.816Z,997.66
2018-06-11T07:50:01.817Z,997.65
2018-06-11T07:51:01.826Z,997.69
2018-06-11T07:52:01.844Z,997.67
2018-06-11T07:53:01.853Z,997.72
2018-06-11T07:54:01.846Z,997.71
2018-06-11T07:55:01.859Z,997.72
2018-06-11T07:56:01.857Z,997.71
2018-06-11T07:57:01.864Z,997.73
2018-06-11T07:58:01.872Z,997.73
2018-06-11T07:59:01.883Z,997.76
2018-06-11T08:00:01.980Z,997.76
2018-06-11T08:01:01.909Z,997.80
2018-06-11T08:02:01.906Z,997.77
2018-06-11T08:03:01.911Z,997.75
2018-06-11T08:04:01.935Z,997.76
2018-06-11T08:05:01.944Z,997.76
2018-06-11T08:06:01.936Z,997.69
2018-06-11T08:07:01.947Z,997.66
2018-06-11T08:08:01.958Z,997.68
2018-06-11T08:09:10.793Z,997.65
2018-06-11T08:10:55.407Z,997.67
2018-06-11T08:11:55.373Z,997.67
2018-06-11T08:12:55.379Z,997.73
2018-06-11T08:13:55.402Z,997.71
2018-06-11T08:14:55.389Z,997.69
2018-06-11T08:15:55.399Z,997.68
2018-06-11T08:16:55.425Z,997.64
2018-06-11T08:17:55.413Z,997.65
2018-06-11T08:18:55.423Z,997.67
2018-06-11T08:19:55.429Z,997.63
2018-06-11T08:20:55.496Z,997.66
2018-06-11T08:21:55.439Z,997.67
2018-06-11T08:22:55.446Z,997.67
2018-06-11T08:23:55.485Z,997.66
2018-06-11T08:24:55.471Z,997.66
2018-06-11T08:25:55.473Z,997.68
2018-06-11T08:26:55.473Z,997.65
2018-06-11T08:27:55.483Z,997.64
2018-06-11T08:28:55.492Z,997.66
2018-06-11T08:29:55.499Z,997.66
2018-06-11T08:30:55.511Z,997.62
2018-06-11T08:31:55.519Z,997.63
2018-06-11T08:32:55.520Z,997.62
2018-06-11T08:33:55.537Z,997.63
2018-06-11T08:34:55.538Z,997.65
2018-06-11T08:35:55.550Z,997.62
2018-06-11T08:36:55.553Z,997.63
2018-06-11T08:37:55.595Z,997.63
2018-06-11T08:38:55.576Z,997.66
2018-06-11T08:39:55.588Z,997.62
2018-06-11T08:40:55.589Z,997.60
2018-06-11T08:41:55.588Z,997.62
2018-06-11T08:42:55.601Z,997.58
2018-06-11T08:43:55.608Z,997.52
2018-06-11T08:44:55.611Z,997.52
2018-06-11T08:45:55.627Z,997.45
2018-06-11T08:46:55.633Z,997.43
2018-06-11T08:47:55.637Z,997.36
2018-06-11T08:48:55.646Z,997.32
2018-06-11T08:49:55.657Z,997.39
2018-06-11T08:50:55.665Z,997.35
2018-06-11T08:51:55.666Z,997.36
2018-06-11T08:52:55.676Z,997.36
2018-06-11T08:53:55.687Z,997.36
2018-06-11T08:54:55.700Z,997.36
2018-06-11T08:55:55.701Z,997.34
2018-06-11T08:56:55.710Z,997.37
2018-06-11T08:57:55.710Z,997.37
2018-06-11T08:58:55.756Z,997.41
2018-06-11T08:59:55.787Z,997.38
2018-06-11T09:00:55.745Z,997.40
2018-06-11T09:01:55.749Z,997.38
2018-06-11T09:02:55.758Z,997.38
2018-06-11T09:03:55.768Z,997.40
2018-06-11T09:04:55.794Z,997.37
2018-06-11T09:05:55.780Z,997.37
2018-06-11T09:06:55.789Z,997.36
2018-06-11T09:07:55.805Z,997.35
2018-06-11T09:08:55.810Z,997.31
2018-06-11T09:09:55.817Z,997.34
2018-06-11T09:10:55.824Z,997.31
2018-06-11T09:11:55.841Z,997.32
2018-06-11T09:12:55.830Z,997.34
2018-06-11T09:13:55.848Z,997.33
2018-06-11T09:14:55.846Z,997.34
2018-06-11T09:15:55.869Z,997.36
2018-06-11T09:16:55.873Z,997.38
2018-06-11T09:17:55.941Z,997.41
2018-06-11T09:18:55.878Z,997.38
2018-06-11T09:19:55.892Z,997.41
2018-06-11T09:20:55.903Z,997.41
2018-06-11T09:21:55.901Z,997.38
2018-06-11T09:22:55.908Z,997.36
2018-06-11T09:23:55.925Z,997.36
2018-06-11T09:24:55.923Z,997.32
2018-06-11T09:25:55.931Z,997.33
2018-06-11T09:26:55.939Z,997.29
2018-06-11T09:27:55.950Z,997.30
2018-06-11T09:28:55.954Z,997.31
2018-06-11T09:29:55.962Z,997.29
2018-06-11T09:30:56.037Z,997.34
2018-06-11T09:31:55.980Z,997.28
2018-06-11T09:32:55.992Z,997.31
2018-06-11T09:33:56.004Z,997.36
2018-06-11T09:34:56.012Z,997.35
2018-06-11T09:35:56.021Z,997.32
2018-06-11T09:36:56.027Z,997.32
2018-06-11T09:37:56.031Z,997.34
2018-06-11T09:38:56.051Z,997.32
2018-06-11T09:39:56.046Z,997.33
2018-06-11T09:40:56.049Z,997.32
2018-06-11T09:41:56.060Z,997.30
2018-06-11T09:42:56.069Z,997.28
2018-06-11T09:43:56.153Z,997.28
2018-06-11T09:44:56.078Z,997.25
2018-06-11T09:45:56.090Z,997.28
2018-06-11T09:46:56.097Z,997.26
2018-06-11T09:47:56.111Z,997.23
2018-06-11T09:48:56.116Z,997.22
2018-06-11T09:49:56.121Z,997.22
2018-06-11T09:50:56.130Z,997.28
2018-06-11T09:51:56.133Z,997.30
2018-06-11T09:52:56.148Z,997.29
2018-06-11T09:53:56.154Z,997.33
2018-06-11T09:54:56.174Z,997.35
2018-06-11T09:55:56.179Z,997.35
2018-06-11T09:56:56.177Z,997.40
2018-06-11T09:57:56.184Z,997.43
2018-06-11T09:58:56.199Z,997.44
2018-06-11T09:59:56.198Z,997.42
2018-06-11T10:00:56.210Z,997.42
2018-06-11T10:01:56.212Z,997.41
2018-06-11T10:02:56.226Z,997.40
2018-06-11T10:03:56.234Z,997.33
2018-06-11T10:04:56.235Z,997.31
2018-06-11T10:05:56.247Z,997.30
2018-06-11T10:06:56.257Z,997.29
2018-06-11T10:07:56.266Z,997.28
2018-06-11T10:08:56.269Z,997.30
2018-06-11T10:09:56.281Z,997.29
2018-06-11T10:10:56.292Z,997.30
2018-06-11T10:11:56.303Z,997.30
2018-06-11T10:12:56.299Z,997.28
2018-06-11T10:13:56.312Z,997.29
2018-06-11T10:14:56.320Z,997.29
2018-06-11T10:15:56.331Z,997.27
2018-06-11T10:16:56.339Z,997.31
2018-06-11T10:17:56.341Z,997.25
2018-06-11T10:18:56.356Z,997.30
2018-06-11T10:19:56.368Z,997.24
2018-06-11T10:20:56.371Z,997.28
2018-06-11T10:21:56.379Z,997.26
2018-06-11T10:22:56.388Z,997.24
2018-06-11T10:23:56.396Z,997.30
2018-06-11T10:24:56.431Z,997.26
2018-06-11T10:25:56.407Z,997.29
2018-06-11T10:26:56.426Z,997.30
2018-06-11T10:27:56.427Z,997.29
2018-06-11T10:29:05.063Z,997.27
2018-06-11T10:30:50.867Z,997.24
2018-06-11T10:31:50.854Z,997.24
2018-06-11T10:32:50.859Z,997.16
2018-06-11T10:33:50.900Z,997.14
2018-06-11T10:34:50.886Z,997.15
2018-06-11T10:35:50.887Z,997.09
2018-06-11T10:36:50.897Z,997.08
2018-06-11T10:37:50.903Z,997.06
2018-06-11T10:38:50.914Z,997.07
2018-06-11T10:39:50.916Z,997.04
2018-06-11T10:40:50.931Z,997.05
2018-06-11T10:41:50.941Z,997.07
2018-06-11T10:42:50.945Z,997.09
2018-06-11T10:45:11.996Z,997.11
2018-06-11T10:46:11.994Z,997.07
2018-06-11T10:47:11.999Z,997.09
2018-06-11T10:48:12.008Z,997.10
2018-06-11T10:49:12.020Z,997.10
2018-06-11T10:50:12.021Z,997.10
2018-06-11T10:51:20.668Z,997.02
2018-06-11T10:53:05.461Z,997.02
2018-06-11T10:54:05.453Z,997.02
2018-06-11T10:55:05.457Z,996.98
2018-06-11T10:56:05.469Z,996.93
2018-06-11T10:57:05.492Z,996.92
2018-06-11T10:58:05.542Z,996.88
2018-06-11T10:59:05.492Z,996.82
2018-06-11T11:00:05.505Z,996.79
2018-06-11T11:01:05.519Z,996.77
2018-06-11T11:02:05.519Z,996.75
2018-06-11T11:03:05.527Z,996.72
2018-06-11T11:04:05.537Z,996.68
2018-06-11T11:05:05.542Z,996.67
2018-06-11T11:06:05.561Z,996.68
2018-06-11T11:07:05.566Z,996.72
2018-06-11T11:08:05.570Z,996.69
2018-06-11T11:09:05.579Z,996.72
2018-06-11T11:10:05.588Z,996.67
2018-06-11T11:11:05.621Z,996.72
2018-06-11T11:12:05.645Z,996.67
2018-06-11T11:13:05.667Z,996.69
2018-06-11T11:14:05.632Z,996.67
2018-06-11T11:15:05.633Z,996.66
2018-06-11T11:16:05.641Z,996.68
2018-06-11T11:17:05.648Z,996.71
2018-06-11T11:18:05.662Z,996.72
2018-06-11T11:19:05.668Z,996.73
2018-06-11T11:20:05.676Z,996.75
2018-06-11T11:21:05.684Z,996.82
2018-06-11T11:22:05.687Z,996.79
2018-06-11T11:23:05.702Z,996.81
2018-06-11T11:24:05.717Z,996.78
2018-06-11T11:25:05.719Z,996.75
2018-06-11T11:26:05.734Z,996.77
2018-06-11T11:27:05.739Z,996.72
2018-06-11T11:28:05.758Z,996.72
2018-06-11T11:29:05.756Z,996.71
2018-06-11T11:30:05.789Z,996.69
2018-06-11T11:31:05.771Z,996.66
2018-06-11T11:32:05.792Z,996.67
2018-06-11T11:33:05.786Z,996.70
2018-06-11T11:34:05.800Z,996.67
2018-06-11T11:35:05.811Z,996.64
2018-06-11T11:36:05.829Z,996.63
2018-06-11T11:37:05.825Z,996.63
2018-06-11T11:38:05.833Z,996.59
2018-06-11T11:39:05.860Z,996.54
2018-06-11T11:40:05.858Z,996.60
2018-06-11T11:41:05.862Z,996.62
2018-06-11T11:42:05.871Z,996.59
2018-06-11T11:43:05.875Z,996.59
2018-06-11T11:44:05.879Z,996.61
2018-06-11T11:45:05.896Z,996.63
2018-06-11T11:46:05.899Z,996.62
2018-06-11T11:47:05.914Z,996.65
2018-06-11T11:48:05.953Z,996.63
2018-06-11T11:49:05.944Z,996.64
2018-06-11T11:50:05.941Z,996.62
2018-06-11T11:51:05.992Z,996.59
2018-06-11T11:52:05.953Z,996.55
2018-06-11T11:53:05.961Z,996.57
2018-06-11T11:54:05.980Z,996.55
2018-06-11T11:55:05.994Z,996.52
2018-06-11T11:56:06.002Z,996.60
2018-06-11T11:57:05.999Z,996.57
2018-06-11T11:58:06.007Z,996.57
2018-06-11T11:59:06.017Z,996.55
2018-06-11T12:00:06.024Z,996.54
2018-06-11T12:01:06.033Z,996.51
2018-06-11T12:02:06.051Z,996.54
2018-06-11T12:03:06.051Z,996.50
2018-06-11T12:04:06.062Z,996.47
2018-06-11T12:05:06.071Z,996.49
2018-06-11T12:06:06.089Z,996.46
2018-06-11T12:07:06.092Z,996.48
2018-06-11T12:08:06.098Z,996.56
2018-06-11T12:09:06.102Z,996.51
2018-06-11T12:10:06.117Z,996.47
2018-06-11T12:11:06.134Z,996.47
2018-06-11T12:12:06.134Z,996.46
2018-06-11T12:13:06.146Z,996.43
2018-06-11T12:14:06.151Z,996.41
2018-06-11T12:15:06.168Z,996.40
2018-06-11T12:16:06.171Z,996.36
2018-06-11T12:17:06.182Z,996.31
2018-06-11T12:18:06.192Z,996.30
2018-06-11T12:19:06.249Z,996.30
2018-06-11T12:20:06.207Z,996.34
2018-06-11T12:21:06.214Z,996.31
2018-06-11T12:22:06.222Z,996.28
2018-06-11T12:23:06.235Z,996.23
2018-06-11T12:24:06.246Z,996.19
2018-06-11T12:25:06.283Z,996.21
2018-06-11T12:26:06.253Z,996.17
2018-06-11T12:27:06.268Z,996.10
2018-06-11T12:28:06.274Z,996.11
2018-06-11T12:29:06.288Z,996.08
2018-06-11T12:30:06.294Z,996.03
2018-06-11T12:31:06.303Z,995.99
2018-06-11T12:32:06.307Z,996.00
2018-06-11T12:33:06.323Z,995.98
2018-06-11T12:34:06.333Z,995.93
2018-06-11T12:35:06.355Z,995.94
2018-06-11T12:36:06.348Z,995.91
2018-06-11T12:37:06.391Z,995.90
2018-06-11T12:38:06.368Z,995.89
2018-06-11T12:39:06.379Z,995.87
2018-06-11T12:40:06.409Z,995.86
2018-06-11T12:41:06.405Z,995.90
2018-06-11T12:42:06.408Z,995.90
2018-06-11T12:43:06.413Z,995.88
2018-06-11T12:44:06.422Z,995.93
2018-06-11T12:45:06.443Z,995.95
2018-06-11T12:46:06.439Z,995.97
2018-06-11T12:47:06.453Z,995.96
2018-06-11T12:48:06.459Z,995.95
2018-06-11T12:49:06.469Z,995.98
2018-06-11T12:50:06.475Z,995.93
2018-06-11T12:51:06.481Z,995.88
2018-06-11T12:52:06.500Z,995.85
2018-06-11T12:53:06.496Z,995.82
2018-06-11T12:54:06.521Z,995.78
2018-06-11T12:55:06.519Z,995.71